Time;durP1;ratioP1;P1;durP2;ratioP2;P2;SDS_P1;SDS_P2;PMS_P1;PMS_P2;Temp;Humidity;BMP_temperature;BMP_pressure;BME280_temperature;BME280_humidity;BME280_pressure;Samples;Min_cycle;Max_cycle;Signal;HPM_P1;HPM_P2
2020/12/18 00:02:38;;;;;;;12.80;5.97;;;5.20;99.90;;;;;;4918574;29;20055;-94
2020/12/18 00:05:19;;;;;;;14.95;6.43;;;5.10;99.90;;;;;;4876662;29;20036;-93
2020/12/18 00:07:49;;;;;;;;;;;5.10;99.90;;;;;;4907776;29;20033;-96
2020/12/18 00:10:23;;;;;;;17.13;6.30;;;5.10;99.90;;;;;;4908031;29;19915;-96
2020/12/18 00:12:49;;;;;;;10.52;6.15;;;5.10;99.90;;;;;;4909125;29;20068;-96
2020/12/18 00:15:21;;;;;;;11.57;6.38;;;5.10;99.90;;;;;;4890709;29;20041;-96
2020/12/18 00:17:46;;;;;;;;;;;5.10;99.90;;;;;;4907225;29;20047;-96
2020/12/18 00:20:15;;;;;;;12.90;5.85;;;5.00;99.90;;;;;;4931455;29;20348;-96
2020/12/18 00:22:41;;;;;;;14.30;7.07;;;5.00;99.90;;;;;;4958204;28;20134;-94
2020/12/18 00:25:08;;;;;;;11.57;5.90;;;5.00;99.90;;;;;;4951193;28;20023;-95
2020/12/18 00:27:35;;;;;;;11.68;5.95;;;5.00;99.90;;;;;;4951420;29;20416;-96
2020/12/18 00:30:01;;;;;;;11.70;5.90;;;4.90;99.90;;;;;;4931409;29;20043;-95
2020/12/18 00:32:26;;;;;;;12.70;7.57;;;5.00;99.90;;;;;;4946616;29;20023;-96
2020/12/18 00:34:53;;;;;;;15.93;6.05;;;5.10;99.90;;;;;;4954398;29;20023;-96
2020/12/18 00:37:20;;;;;;;9.13;5.18;;;5.10;99.90;;;;;;4946356;29;20015;-96
2020/12/18 00:39:46;;;;;;;13.13;5.70;;;5.20;99.90;;;;;;4962568;28;20110;-92
2020/12/18 00:42:12;;;;;;;10.38;5.28;;;5.30;99.90;;;;;;4962783;28;20053;-92
2020/12/18 00:44:37;;;;;;;11.50;5.97;;;5.50;99.90;;;;;;4962201;28;20090;-93
2020/12/18 00:47:03;;;;;;;10.30;5.30;;;5.40;99.90;;;;;;4962481;28;20016;-94
2020/12/18 00:49:32;;;;;;;13.75;5.75;;;5.40;99.90;;;;;;4979248;28;20122;-93
2020/12/18 00:51:58;;;;;;;12.63;7.15;;;5.30;99.90;;;;;;4945501;28;20012;-93
2020/12/18 00:54:23;;;;;;;12.68;6.10;;;5.30;99.90;;;;;;4960856;28;20030;-93
2020/12/18 00:56:49;;;;;;;15.38;6.20;;;5.30;99.90;;;;;;4978016;28;20062;-94
2020/12/18 00:59:15;;;;;;;16.70;6.85;;;5.30;99.90;;;;;;4948443;29;20509;-95
2020/12/18 01:01:41;;;;;;;12.57;6.30;;;5.20;99.90;;;;;;4943725;29;20059;-93
2020/12/18 01:04:07;;;;;;;12.52;5.80;;;5.10;99.90;;;;;;4961026;29;20047;-94
2020/12/18 01:06:32;;;;;;;11.43;5.70;;;5.20;99.90;;;;;;4960339;29;20457;-91
2020/12/18 01:08:58;;;;;;;20.90;7.93;;;5.20;99.90;;;;;;4945419;29;20027;-93
2020/12/18 01:11:24;;;;;;;15.80;6.30;;;5.30;99.90;;;;;;4954671;29;20038;-93
2020/12/18 01:13:50;;;;;;;18.67;7.15;;;5.30;99.90;;;;;;4954341;29;20051;-93
2020/12/18 01:16:24;;;;;;;16.50;7.25;;;5.20;99.90;;;;;;4955989;29;20024;-94
2020/12/18 01:18:51;;;;;;;9.93;6.47;;;5.30;99.90;;;;;;4933937;29;20244;-94
2020/12/18 01:21:16;;;;;;;14.55;6.75;;;5.30;99.90;;;;;;4925907;29;20059;-94
2020/12/18 01:23:42;;;;;;;14.95;6.88;;;5.30;99.90;;;;;;4913973;29;20043;-95
2020/12/18 01:26:08;;;;;;;16.40;7.78;;;5.30;99.90;;;;;;4939198;29;20181;-95
2020/12/18 01:28:33;;;;;;;10.77;6.10;;;5.30;99.90;;;;;;4983112;23;20043;-93
2020/12/18 01:31:02;;;;;;;14.02;6.90;;;5.30;99.90;;;;;;4959142;29;20151;-93
2020/12/18 01:33:28;;;;;;;15.05;7.20;;;5.20;99.90;;;;;;4961241;29;20030;-94
2020/12/18 01:35:54;;;;;;;14.10;7.53;;;5.20;99.90;;;;;;4956461;29;20023;-95
2020/12/18 01:38:20;;;;;;;10.50;6.85;;;5.20;99.90;;;;;;4961559;28;20050;-96
2020/12/18 01:40:45;;;;;;;10.60;6.70;;;5.20;99.90;;;;;;4961499;28;20035;-96
2020/12/18 01:43:11;;;;;;;11.10;6.80;;;5.20;99.90;;;;;;4960667;29;20034;-94
2020/12/18 01:45:37;;;;;;;12.27;6.80;;;5.20;99.90;;;;;;4961223;28;20023;-94
2020/12/18 01:48:05;;;;;;;15.98;8.10;;;5.20;99.90;;;;;;4961834;28;20020;-92
2020/12/18 01:50:31;;;;;;;12.85;6.97;;;5.10;99.90;;;;;;4961979;28;20023;-92
2020/12/18 01:52:58;;;;;;;12.23;6.63;;;5.10;99.90;;;;;;4977866;28;20023;-90
2020/12/18 01:55:25;;;;;;;14.25;6.65;;;5.20;99.90;;;;;;4961167;28;20126;-92
2020/12/18 01:57:52;;;;;;;10.38;5.78;;;5.20;99.90;;;;;;4962208;28;20110;-93
2020/12/18 02:00:18;;;;;;;13.32;6.88;;;5.30;99.90;;;;;;4981124;29;20026;-92
2020/12/18 02:02:44;;;;;;;12.65;7.55;;;5.30;99.90;;;;;;4964338;28;20015;-93
2020/12/18 02:05:10;;;;;;;11.45;6.78;;;5.20;99.90;;;;;;4981999;28;20055;-94
2020/12/18 02:07:38;;;;;;;14.90;6.88;;;5.20;99.90;;;;;;4981872;28;20042;-93
2020/12/18 02:10:07;;;;;;;18.70;7.80;;;5.20;99.90;;;;;;4962067;28;20027;-93
2020/12/18 02:12:34;;;;;;;11.82;7.28;;;5.10;99.90;;;;;;4954219;29;20027;-93
2020/12/18 02:15:00;;;;;;;16.25;7.00;;;5.10;99.90;;;;;;4955556;29;20038;-93
2020/12/18 02:17:26;;;;;;;15.45;8.00;;;4.90;99.90;;;;;;4959758;29;20031;-93
2020/12/18 02:19:53;;;;;;;17.45;6.93;;;4.90;99.90;;;;;;4958622;29;20027;-93
2020/12/18 02:22:24;;;;;;;15.93;8.20;;;4.90;99.90;;;;;;4958913;29;20031;-93
2020/12/18 02:25:07;;;;;;;15.88;7.65;;;4.80;99.90;;;;;;4963256;28;20042;-96
2020/12/18 02:27:34;;;;;;;12.18;7.18;;;4.70;99.90;;;;;;4964027;28;20026;-96
2020/12/18 02:30:01;;;;;;;15.27;7.50;;;4.70;99.90;;;;;;4963298;28;20051;-94
2020/12/18 02:32:27;;;;;;;14.18;7.20;;;4.80;99.90;;;;;;4963765;29;20011;-95
2020/12/18 02:34:52;;;;;;;14.48;7.05;;;4.80;99.90;;;;;;4963138;28;20034;-94
2020/12/18 02:37:19;;;;;;;11.32;7.03;;;4.80;99.90;;;;;;4979902;28;20091;-95
2020/12/18 02:39:45;;;;;;;14.05;7.00;;;4.80;99.90;;;;;;4979183;28;20019;-94
2020/12/18 02:42:11;;;;;;;13.60;6.85;;;4.80;99.90;;;;;;4957486;28;20186;-94
2020/12/18 02:44:37;;;;;;;16.65;7.25;;;4.90;99.90;;;;;;4946104;29;20082;-96
2020/12/18 02:47:03;;;;;;;13.82;6.93;;;4.90;99.90;;;;;;4945109;29;20027;-95
2020/12/18 02:49:28;;;;;;;18.98;8.15;;;4.90;99.90;;;;;;4961927;29;20031;-95
2020/12/18 02:51:55;;;;;;;13.10;7.10;;;4.90;99.90;;;;;;4944726;29;20038;-94
2020/12/18 02:54:21;;;;;;;16.48;7.07;;;5.00;99.90;;;;;;4945320;29;20062;-93
2020/12/18 02:56:47;;;;;;;14.82;7.07;;;4.90;99.90;;;;;;4902603;29;20036;-94
2020/12/18 02:59:12;;;;;;;14.95;7.55;;;4.90;99.90;;;;;;4886273;29;20068;-93
2020/12/18 03:01:39;;;;;;;12.07;7.32;;;4.90;99.90;;;;;;4885410;29;20135;-93
2020/12/18 03:04:05;;;;;;;15.93;7.35;;;4.90;99.90;;;;;;4885841;29;20032;-93
2020/12/18 03:06:32;;;;;;;14.18;7.25;;;5.00;99.90;;;;;;4884558;29;20387;-93
2020/12/18 03:08:57;;;;;;;9.93;6.15;;;5.00;99.90;;;;;;4866502;29;20499;-94
2020/12/18 03:11:24;;;;;;;14.60;7.13;;;5.00;99.90;;;;;;4882604;29;20116;-93
2020/12/18 03:13:50;;;;;;;13.27;7.05;;;5.10;99.90;;;;;;4882140;29;20068;-93
2020/12/18 03:16:17;;;;;;;13.70;6.32;;;5.00;99.90;;;;;;4863810;29;20071;-93
2020/12/18 03:18:48;;;;;;;15.85;6.70;;;4.90;99.90;;;;;;4864896;29;20128;-95
2020/12/18 03:21:17;;;;;;;13.95;7.40;;;4.90;99.90;;;;;;4870819;29;20443;-94
2020/12/18 03:23:43;;;;;;;14.10;6.35;;;5.00;99.90;;;;;;4866136;29;20038;-94
2020/12/18 03:26:09;;;;;;;12.85;6.82;;;5.00;99.90;;;;;;4864736;29;20093;-93
2020/12/18 03:28:36;;;;;;;10.85;6.50;;;4.90;99.90;;;;;;4864972;29;20033;-93
2020/12/18 03:31:05;;;;;;;10.98;5.63;;;4.90;99.90;;;;;;4868195;29;20052;-93
2020/12/18 03:33:30;;;;;;;10.52;6.32;;;4.90;99.90;;;;;;4891697;29;20081;-93
2020/12/18 03:35:58;;;;;;;13.27;6.60;;;5.00;99.90;;;;;;4903325;29;20041;-94
2020/12/18 03:38:24;;;;;;;10.93;6.25;;;4.90;99.90;;;;;;4887486;29;20041;-96
2020/12/18 03:40:52;;;;;;;9.73;5.82;;;5.00;99.90;;;;;;4902885;29;20053;-95
2020/12/18 03:43:18;;;;;;;16.30;6.85;;;4.90;99.90;;;;;;4912006;28;20043;-95
2020/12/18 03:45:44;;;;;;;11.38;6.45;;;5.00;99.90;;;;;;4919777;29;20020;-95
2020/12/18 03:48:12;;;;;;;13.50;5.68;;;4.90;99.90;;;;;;4940937;28;20051;-96
2020/12/18 03:50:38;;;;;;;16.67;7.28;;;4.90;99.90;;;;;;4958444;28;20028;-95
2020/12/18 03:53:04;;;;;;;10.70;6.70;;;4.90;99.90;;;;;;4941107;29;20037;-95
2020/12/18 03:55:31;;;;;;;14.65;6.53;;;4.90;99.90;;;;;;4939056;29;20418;-95
2020/12/18 03:57:58;;;;;;;11.27;6.43;;;4.80;99.90;;;;;;4907708;29;20393;-95
2020/12/18 04:00:24;;;;;;;11.13;6.00;;;4.90;99.90;;;;;;4922890;29;20717;-93
2020/12/18 04:02:51;;;;;;;15.60;7.05;;;4.80;99.90;;;;;;4906987;29;20171;-95
2020/12/18 04:05:19;;;;;;;11.98;6.80;;;4.80;99.90;;;;;;4900777;29;20364;-95
2020/12/18 04:07:46;;;;;;;14.93;7.10;;;4.80;99.90;;;;;;4900854;29;20045;-95
2020/12/18 04:10:12;;;;;;;12.60;6.13;;;4.80;99.90;;;;;;4901548;29;20447;-94
2020/12/18 04:12:37;;;;;;;19.77;6.60;;;4.70;99.90;;;;;;4903479;29;20366;-93
2020/12/18 04:15:03;;;;;;;16.80;8.13;;;4.80;99.90;;;;;;4904863;29;20045;-92
2020/12/18 04:17:29;;;;;;;11.35;6.57;;;4.70;99.90;;;;;;4900517;29;20132;-94
2020/12/18 04:19:55;;;;;;;12.35;6.55;;;4.80;99.90;;;;;;4900292;29;20040;-95
2020/12/18 04:22:20;;;;;;;14.15;6.13;;;4.80;99.90;;;;;;4901060;29;20080;-94
2020/12/18 04:24:47;;;;;;;11.18;5.88;;;4.90;99.90;;;;;;4885160;29;20044;-95
2020/12/18 04:27:19;;;;;;;11.85;6.25;;;5.00;99.90;;;;;;4886501;29;20039;-94
2020/12/18 04:29:46;;;;;;;11.57;6.35;;;5.00;99.90;;;;;;4891279;29;20082;-93
2020/12/18 04:32:11;;;;;;;10.13;5.65;;;5.10;99.90;;;;;;4895586;29;20051;-96
2020/12/18 04:34:37;;;;;;;12.82;6.72;;;5.00;99.90;;;;;;4904539;29;20068;-95
2020/12/18 04:37:06;;;;;;;11.60;5.63;;;5.00;99.90;;;;;;4901770;29;20048;-94
2020/12/18 04:39:32;;;;;;;13.00;5.82;;;5.10;99.90;;;;;;4896612;29;20040;-93
2020/12/18 04:41:58;;;;;;;13.27;6.40;;;5.10;99.90;;;;;;4896116;29;20032;-93
2020/12/18 04:44:26;;;;;;;10.38;5.35;;;5.10;99.90;;;;;;4916830;29;20088;-94
2020/12/18 04:46:56;;;;;;;9.70;5.47;;;5.10;99.90;;;;;;4912697;29;20028;-94
2020/12/18 04:49:24;;;;;;;13.13;6.68;;;5.10;99.90;;;;;;4902395;29;20074;-95
2020/12/18 04:51:53;;;;;;;13.00;6.18;;;5.10;99.90;;;;;;4887744;29;20297;-96
2020/12/18 04:54:21;;;;;;;11.20;5.82;;;5.20;99.90;;;;;;4923922;29;20047;-96
2020/12/18 04:56:53;;;;;;;14.98;5.85;;;5.10;99.90;;;;;;4956265;28;20079;-95
2020/12/18 04:59:23;;;;;;;8.70;5.60;;;5.20;99.90;;;;;;4958440;28;20046;-94
2020/12/18 05:01:54;;;;;;;13.40;5.80;;;5.20;99.90;;;;;;4958617;28;20023;-94
2020/12/18 05:04:21;;;;;;;15.05;5.75;;;5.30;99.90;;;;;;4941527;28;20095;-95
2020/12/18 05:06:47;;;;;;;10.50;6.25;;;5.20;99.90;;;;;;4941462;28;20157;-95
2020/12/18 05:09:15;;;;;;;15.02;6.57;;;5.20;99.90;;;;;;4941492;28;20020;-95
2020/12/18 05:11:42;;;;;;;8.35;5.60;;;5.20;99.90;;;;;;4958480;28;20037;-96
2020/12/18 05:14:08;;;;;;;8.55;5.00;;;5.20;99.90;;;;;;4941432;28;20027;-95
2020/12/18 05:16:35;;;;;;;14.20;6.10;;;5.30;99.90;;;;;;4941380;28;20017;-95
2020/12/18 05:19:04;;;;;;;13.45;6.22;;;5.30;99.90;;;;;;4941721;28;20028;-94
2020/12/18 05:21:31;;;;;;;9.27;5.22;;;5.30;99.90;;;;;;4942524;28;20059;-94
2020/12/18 05:23:58;;;;;;;12.13;5.53;;;5.30;99.90;;;;;;4954086;29;20083;-95
2020/12/18 05:26:30;;;;;;;7.72;4.78;;;5.20;99.90;;;;;;4937900;29;20113;-94
2020/12/18 05:29:02;;;;;;;9.20;5.18;;;5.20;99.90;;;;;;4939940;28;20052;-90
2020/12/18 05:31:30;;;;;;;8.45;4.85;;;5.20;99.90;;;;;;4936233;29;20119;-91
2020/12/18 05:33:59;;;;;;;9.88;4.88;;;5.10;99.90;;;;;;4952488;29;20062;-90
2020/12/18 05:36:26;;;;;;;8.27;5.25;;;5.20;99.90;;;;;;4940477;29;20027;-91
2020/12/18 05:38:52;;;;;;;6.30;4.90;;;5.10;99.90;;;;;;4963587;29;20030;-92
2020/12/18 05:41:22;;;;;;;11.05;4.90;;;5.10;99.90;;;;;;4964182;29;20142;-92
2020/12/18 05:43:48;;;;;;;11.68;4.78;;;5.00;99.90;;;;;;4945455;29;20038;-92
2020/12/18 05:46:29;;;;;;;10.10;5.38;;;4.90;99.90;;;;;;4946074;29;20050;-93
2020/12/18 05:49:04;;;;;;;8.65;5.10;;;4.90;99.90;;;;;;4946016;29;20027;-93
2020/12/18 05:51:34;;;;;;;15.43;5.85;;;5.00;99.90;;;;;;4958295;29;20031;-92
2020/12/18 05:54:12;;;;;;;11.88;5.35;;;5.00;99.90;;;;;;4942528;29;20491;-90
2020/12/18 05:56:41;;;;;;;15.43;6.68;;;4.90;99.90;;;;;;4939138;29;20194;-91
2020/12/18 05:59:14;;;;;;;10.93;5.43;;;4.90;99.90;;;;;;4942371;29;20110;-91
2020/12/18 06:01:47;;;;;;;12.38;5.18;;;4.90;99.90;;;;;;4943438;29;20039;-91
2020/12/18 06:04:13;;;;;;;7.95;4.53;;;4.90;99.90;;;;;;4950576;29;20221;-92
2020/12/18 06:06:53;;;;;;;8.93;4.97;;;4.90;99.90;;;;;;4960778;29;20102;-92
2020/12/18 06:09:21;;;;;;;12.63;6.03;;;4.90;99.90;;;;;;4963105;28;20031;-93
2020/12/18 06:11:48;;;;;;;17.33;5.97;;;4.90;99.90;;;;;;4980929;28;20031;-93
2020/12/18 06:14:15;;;;;;;13.25;6.30;;;4.90;99.90;;;;;;4963765;28;20028;-93
2020/12/18 06:16:49;;;;;;;12.90;5.32;;;4.90;99.90;;;;;;4950054;29;20119;-94
2020/12/18 06:19:19;;;;;;;9.35;5.40;;;4.80;99.90;;;;;;4950339;29;20051;-93
2020/12/18 06:22:06;;;;;;;13.13;6.57;;;4.80;99.90;;;;;;4932532;29;20041;-92
2020/12/18 06:24:31;;;;;;;11.98;5.40;;;4.90;99.90;;;;;;4926552;29;20055;-93
2020/12/18 06:26:57;;;;;;;10.13;5.30;;;4.90;99.90;;;;;;4927132;29;20475;-91
2020/12/18 06:29:25;;;;;;;10.95;5.13;;;4.90;99.90;;;;;;4928118;29;20051;-94
2020/12/18 06:31:53;;;;;;;10.63;5.78;;;4.90;99.90;;;;;;4926799;29;20074;-95
2020/12/18 06:34:29;;;;;;;14.98;6.20;;;4.90;99.90;;;;;;4918773;29;20032;-94
2020/12/18 06:37:01;;;;;;;18.63;7.03;;;4.90;99.90;;;;;;4913542;29;20067;-94
2020/12/18 06:39:37;;;;;;;10.43;5.53;;;4.90;99.90;;;;;;4916791;29;20040;-93
2020/12/18 06:42:14;;;;;;;11.10;6.00;;;5.00;99.90;;;;;;4905300;29;20033;-94
2020/12/18 06:44:48;;;;;;;9.68;5.85;;;5.00;99.90;;;;;;4904951;29;20135;-95
2020/12/18 06:47:25;;;;;;;13.60;5.97;;;4.90;99.90;;;;;;4894272;29;20393;-94
2020/12/18 06:50:10;;;;;;;13.48;7.00;;;4.90;99.90;;;;;;4923662;29;20039;-95
2020/12/18 06:52:45;;;;;;;11.48;6.40;;;4.80;99.90;;;;;;4906573;29;20043;-94
2020/12/18 06:55:29;;;;;;;11.65;5.85;;;4.80;99.90;;;;;;4929712;29;20496;-94
2020/12/18 06:58:09;;;;;;;11.57;6.55;;;4.90;99.90;;;;;;4923641;29;20068;-92
2020/12/18 07:00:56;;;;;;;16.13;7.23;;;4.90;99.90;;;;;;4919410;29;20442;-91
2020/12/18 07:03:46;;;;;;;13.75;6.07;;;4.90;99.90;;;;;;4866532;29;20097;-92
2020/12/18 07:06:27;;;;;;;17.13;7.32;;;4.90;99.90;;;;;;4853480;29;20420;-93
2020/12/18 07:08:57;;;;;;;11.77;6.10;;;4.90;99.90;;;;;;4866342;29;20037;-93
2020/12/18 07:11:30;;;;;;;15.93;6.18;;;5.10;99.90;;;;;;4848535;29;20154;-93
2020/12/18 07:14:00;;;;;;;11.73;6.05;;;5.10;99.90;;;;;;4843347;29;20065;-92
2020/12/18 07:16:27;;;;;;;9.45;4.65;;;5.20;99.90;;;;;;4868352;29;20025;-92
2020/12/18 07:18:58;;;;;;;12.32;6.25;;;5.20;99.90;;;;;;4884403;29;20041;-92
2020/12/18 07:21:24;;;;;;;10.70;6.63;;;5.20;99.90;;;;;;4854293;29;20089;-92
2020/12/18 07:23:53;;;;;;;11.30;5.32;;;5.20;99.90;;;;;;4972533;23;20039;-92
2020/12/18 07:26:20;;;;;;;12.70;5.47;;;5.20;99.90;;;;;;4939835;29;20070;-93
2020/12/18 07:28:47;;;;;;;9.50;5.47;;;5.20;99.90;;;;;;4920090;29;20112;-95
2020/12/18 07:31:18;;;;;;;11.20;5.50;;;5.10;99.90;;;;;;4939387;29;20061;-93
2020/12/18 07:33:44;;;;;;;11.00;5.18;;;5.20;99.90;;;;;;4939932;29;20195;-94
2020/12/18 07:36:12;;;;;;;13.43;6.53;;;5.10;99.90;;;;;;4918080;29;20119;-93
2020/12/18 07:38:38;;;;;;;8.57;5.38;;;5.10;99.90;;;;;;4951674;28;20143;-92
2020/12/18 07:41:11;;;;;;;12.45;5.63;;;5.10;99.90;;;;;;4926814;29;20079;-95
2020/12/18 07:43:41;;;;;;;9.77;5.22;;;5.10;99.90;;;;;;4910391;29;20047;-94
2020/12/18 07:46:09;;;;;;;9.80;5.35;;;5.20;99.90;;;;;;4907820;29;20051;-92
2020/12/18 07:48:38;;;;;;;17.40;6.18;;;5.20;99.90;;;;;;4940098;29;20032;-93
2020/12/18 07:51:18;;;;;;;8.55;5.32;;;5.20;99.90;;;;;;4953775;29;20047;-94
2020/12/18 07:54:05;;;;;;;17.15;7.20;;;5.20;99.90;;;;;;4939399;29;20016;-93
2020/12/18 07:56:32;;;;;;;13.90;5.78;;;5.20;99.90;;;;;;4928813;29;20050;-94
2020/12/18 07:59:24;;;;;;;8.95;6.80;;;5.30;99.90;;;;;;4939644;29;20048;-92
2020/12/18 08:01:52;;;;;;;11.50;5.90;;;5.30;99.90;;;;;;4921013;29;20025;-91
2020/12/18 08:04:23;;;;;;;11.15;5.72;;;5.40;99.90;;;;;;4938453;29;20111;-93
2020/12/18 08:09:25;;;;;;;9.48;5.55;;;5.60;99.90;;;;;;5012057;23;20069;-94
2020/12/18 08:12:14;;;;;;;11.20;5.47;;;5.60;99.90;;;;;;4977346;28;20039;-91
2020/12/18 08:18:00;;;;;;;7.57;5.03;;;5.70;99.90;;;;;;4983841;28;20047;-94
2020/12/18 08:20:30;;;;;;;10.60;5.78;;;5.70;99.90;;;;;;4997194;28;20092;-92
2020/12/18 08:23:06;;;;;;;17.48;6.47;;;5.70;99.90;;;;;;4967074;29;20026;-93
2020/12/18 08:25:48;;;;;;;7.65;5.05;;;5.80;99.90;;;;;;4988741;28;20436;-95
2020/12/18 08:28:20;;;;;;;8.63;5.00;;;5.90;99.90;;;;;;4972961;28;20169;-93
2020/12/18 08:30:54;;;;;;;8.55;5.43;;;5.90;99.90;;;;;;4972565;28;20050;-93
2020/12/18 08:33:26;;;;;;;12.70;6.18;;;6.10;99.90;;;;;;4954725;28;20600;-93
2020/12/18 08:35:56;;;;;;;10.85;5.53;;;6.10;99.90;;;;;;4963509;29;20394;-94
2020/12/18 08:38:31;;;;;;;8.60;5.55;;;6.20;99.90;;;;;;4968907;29;20043;-92
2020/12/18 08:41:55;;;;;;;11.55;4.95;;;6.30;99.90;;;;;;4923009;29;20031;-94
2020/12/18 08:44:58;;;;;;;12.82;5.55;;;6.40;99.90;;;;;;4937391;29;20036;-95
2020/12/18 08:47:30;;;;;;;10.98;5.60;;;6.40;99.90;;;;;;4911087;29;20033;-94
2020/12/18 08:49:58;;;;;;;9.30;5.30;;;6.50;99.90;;;;;;4916911;29;20092;-95
2020/12/18 08:52:32;;;;;;;13.30;6.22;;;6.60;99.90;;;;;;4918864;29;20029;-92
2020/12/18 08:55:07;;;;;;;9.32;5.10;;;6.60;99.90;;;;;;4899871;29;20032;-95
2020/12/18 08:57:36;;;;;;;7.25;5.47;;;6.60;99.90;;;;;;4883868;29;20318;-90
2020/12/18 09:00:27;;;;;;;11.48;5.53;;;6.70;99.90;;;;;;4925892;29;20044;-93
2020/12/18 09:03:25;;;;;;;9.90;4.75;;;6.80;99.90;;;;;;4917071;29;20111;-93
2020/12/18 09:08:38;;;;;;;11.02;5.80;;;6.90;99.90;;;;;;5372006;23;20059;-92
2020/12/18 09:11:10;;;;;;;10.38;5.20;;;7.00;99.90;;;;;;4943847;29;20079;-90
2020/12/18 09:13:45;;;;;;;9.75;4.53;;;7.10;99.90;;;;;;4905130;29;20063;-93
2020/12/18 09:16:13;;;;;;;9.43;6.07;;;7.20;99.90;;;;;;4898556;29;20100;-91
2020/12/18 09:18:41;;;;;;;10.38;5.38;;;7.20;99.90;;;;;;4914945;29;20041;-93
2020/12/18 09:26:28;;;;;;;9.13;6.03;;;7.50;99.90;;;;;;5470192;23;20055;-91
2020/12/18 09:29:52;;;;;;;14.27;6.80;;;7.50;99.90;;;;;;4975698;28;20154;-92
2020/12/18 09:32:18;;;;;;;11.00;6.28;;;7.60;99.90;;;;;;4970489;28;20034;-91
2020/12/18 09:34:45;;;;;;;9.38;4.72;;;7.70;99.90;;;;;;4971944;28;20023;-90
2020/12/18 09:39:52;;;;;;;8.55;4.45;;;7.90;99.90;;;;;;5008491;23;20549;-91
2020/12/18 09:43:02;;;;;;;8.57;5.38;;;8.10;99.90;;;;;;5002643;28;20030;-92
2020/12/18 09:45:33;;;;;;;7.30;4.65;;;8.10;99.90;;;;;;5100291;23;20050;-91
2020/12/18 09:48:08;;;;;;;9.55;5.55;;;8.20;99.90;;;;;;5106982;23;20477;-91
2020/12/18 09:50:44;;;;;;;12.07;5.10;;;8.10;99.90;;;;;;4921035;29;20102;-93
2020/12/18 09:53:13;;;;;;;8.45;4.90;;;8.20;99.90;;;;;;4922541;29;20098;-91
2020/12/18 09:56:04;;;;;;;7.82;4.60;;;8.20;99.90;;;;;;4915908;29;20025;-90
2020/12/18 09:58:41;;;;;;;11.55;4.47;;;8.30;99.90;;;;;;4932391;29;20028;-90
2020/12/18 10:01:28;;;;;;;9.50;5.65;;;8.30;99.90;;;;;;4890461;29;20044;-90
2020/12/18 10:03:59;;;;;;;11.23;4.88;;;8.30;99.90;;;;;;4873408;29;20116;-90
2020/12/18 10:10:12;;;;;;;8.95;4.35;;;8.40;99.90;;;;;;4820016;29;20358;-92
2020/12/18 10:13:02;;;;;;;8.30;5.00;;;8.30;99.90;;;;;;4800291;29;20050;-90
2020/12/18 10:15:54;;;;;;;7.18;4.45;;;8.20;99.90;;;;;;4790801;29;20106;-91
2020/12/18 10:18:47;;;;;;;7.55;3.92;;;8.20;99.90;;;;;;4766797;30;20084;-92
2020/12/18 10:21:15;;;;;;;8.82;4.38;;;8.10;99.90;;;;;;5287786;23;20076;-91
2020/12/18 10:23:41;;;;;;;11.73;5.20;;;8.10;99.90;;;;;;4924350;29;20028;-89
2020/12/18 10:26:15;;;;;;;8.73;4.35;;;8.10;99.90;;;;;;4904799;29;20127;-90
2020/12/18 10:28:47;;;;;;;10.80;4.40;;;8.20;99.90;;;;;;4919016;29;20048;-91
2020/12/18 10:31:21;;;;;;;10.02;5.53;;;8.20;99.90;;;;;;4882393;29;20020;-91
2020/12/18 10:37:57;;;;;;;7.53;4.25;;;8.30;99.90;;;;;;5284342;23;20110;-91
2020/12/18 10:40:32;;;;;;;12.18;5.03;;;8.30;99.90;;;;;;4940442;29;20039;-91
2020/12/18 10:43:00;;;;;;;21.02;5.50;;;8.50;99.90;;;;;;4929950;29;20029;-92
2020/12/18 10:45:48;;;;;;;14.93;7.28;;;8.50;99.90;;;;;;4899891;29;20419;-91
2020/12/18 10:48:14;;;;;;;9.70;4.60;;;8.60;99.90;;;;;;4885485;29;20209;-90
2020/12/18 10:50:43;;;;;;;10.02;4.40;;;8.70;99.90;;;;;;4914474;29;20068;-92
2020/12/18 10:53:18;;;;;;;6.95;4.85;;;8.70;99.90;;;;;;4933621;29;20040;-92
2020/12/18 10:55:45;;;;;;;6.15;4.40;;;8.70;99.90;;;;;;4918281;29;20032;-94
2020/12/18 10:58:18;;;;;;;8.43;4.05;;;8.80;99.90;;;;;;4879026;29;20060;-92
2020/12/18 11:01:00;;;;;;;8.07;4.78;;;8.80;99.90;;;;;;4897196;29;20070;-91
2020/12/18 11:03:26;;;;;;;;;;;8.80;99.90;;;;;;4898760;29;20350;-92
2020/12/18 11:06:02;;;;;;;8.60;5.07;;;8.90;99.90;;;;;;4880711;29;20003;-91
2020/12/18 11:08:28;;;;;;;18.40;9.65;;;8.80;99.90;;;;;;4880695;29;20048;-91
2020/12/18 11:10:59;;;;;;;7.10;3.88;;;9.00;99.90;;;;;;4880285;29;20025;-90
2020/12/18 11:13:28;;;;;;;7.00;3.97;;;9.00;99.90;;;;;;4879674;29;20093;-93
2020/12/18 11:16:15;;;;;;;9.20;4.32;;;9.10;99.90;;;;;;4940174;29;20303;-91
2020/12/18 11:18:48;;;;;;;8.85;4.80;;;9.10;99.90;;;;;;4908458;29;20052;-94
2020/12/18 11:21:30;;;;;;;7.68;4.22;;;9.10;99.90;;;;;;5251585;23;20040;-93
2020/12/18 11:24:03;;;;;;;7.68;4.35;;;9.00;99.90;;;;;;4924789;29;20040;-92
2020/12/18 11:26:45;;;;;;;11.07;4.13;;;9.00;99.90;;;;;;4940678;29;20097;-91
2020/12/18 11:29:29;;;;;;;8.05;3.90;;;9.00;99.90;;;;;;4940677;29;20012;-91
2020/12/18 11:32:22;;;;;;;6.82;4.25;;;9.00;99.90;;;;;;4926183;29;20039;-91
2020/12/18 11:35:07;;;;;;;7.85;3.72;;;9.00;99.90;;;;;;4941354;29;20016;-89
2020/12/18 11:39:07;;;;;;;;;;;;;;;;;;;;;
2020/12/18 11:41:27;;;;;;;6.38;3.78;;;9.10;99.90;;;;;;4930369;29;20032;-91
2020/12/18 11:44:18;;;;;;;7.18;3.70;;;9.20;99.90;;;;;;4929432;29;20043;-90
2020/12/18 11:46:51;;;;;;;10.40;5.32;;;9.20;99.90;;;;;;4912166;29;20039;-91
2020/12/18 11:49:20;;;;;;;6.30;3.50;;;9.30;99.90;;;;;;4930955;29;20055;-90
2020/12/18 11:51:51;;;;;;;9.95;4.68;;;9.30;99.90;;;;;;4931841;29;20012;-92
2020/12/18 11:54:33;;;;;;;5.97;3.92;;;9.40;99.90;;;;;;4935638;29;20036;-94
2020/12/18 11:57:00;;;;;;;7.20;4.00;;;9.50;99.90;;;;;;4927404;29;20032;-93
2020/12/18 11:59:28;;;;;;;9.95;4.00;;;9.50;99.90;;;;;;5388745;23;20021;-96
2020/12/18 12:04:35;;;;;;;9.45;4.53;;;9.60;99.90;;;;;;5197670;23;20055;-94
2020/12/18 12:07:08;;;;;;;;;;;9.70;99.90;;;;;;4908233;28;20063;-92
2020/12/18 12:09:37;;;;;;;6.60;3.40;;;9.70;99.90;;;;;;4953945;29;19918;-93
2020/12/18 12:12:12;;;;;;;9.02;3.85;;;9.70;99.90;;;;;;4897785;29;20029;-92
2020/12/18 12:14:38;;;;;;;8.45;3.88;;;9.80;99.90;;;;;;4898228;29;20051;-91
2020/12/18 12:17:14;;;;;;;4.90;2.83;;;9.90;99.90;;;;;;4857129;29;20068;-90
2020/12/18 12:19:54;;;;;;;7.43;3.40;;;9.90;99.90;;;;;;4857228;29;20045;-96
2020/12/18 12:22:20;;;;;;;5.13;3.05;;;9.90;99.90;;;;;;5042253;23;20066;-89
2020/12/18 12:24:46;;;;;;;6.72;3.10;;;9.90;99.90;;;;;;4940288;29;20058;-88
2020/12/18 12:27:13;;;;;;;4.90;3.42;;;10.10;99.90;;;;;;4924860;29;20032;-86
2020/12/18 12:29:39;;;;;;;7.20;3.72;;;10.40;99.90;;;;;;4923908;29;20027;-84
2020/12/18 12:32:05;;;;;;;7.40;3.70;;;10.60;99.90;;;;;;4940080;29;20028;-84
2020/12/18 12:34:34;;;;;;;6.13;3.13;;;10.60;99.90;;;;;;4938532;29;20031;-82
2020/12/18 12:37:02;;;;;;;6.22;3.33;;;10.70;99.90;;;;;;4947525;28;20054;-88
2020/12/18 12:39:33;;;;;;;8.50;3.13;;;10.60;99.90;;;;;;5135921;23;20043;-89
2020/12/18 12:42:02;;;;;;;16.05;3.65;;;10.80;99.90;;;;;;4939590;29;20055;-82
2020/12/18 12:44:29;;;;;;;9.00;3.85;;;11.00;99.90;;;;;;4939000;29;20491;-87
2020/12/18 12:46:55;;;;;;;5.00;3.40;;;10.80;99.90;;;;;;4941372;29;20031;-86
2020/12/18 12:49:22;;;;;;;6.05;3.90;;;10.80;99.90;;;;;;4941342;29;20071;-88
2020/12/18 12:52:02;;;;;;;5.53;3.38;;;10.80;99.90;;;;;;4950276;29;20015;-88
2020/12/18 12:54:28;;;;;;;7.33;3.53;;;10.90;99.90;;;;;;4951528;29;20036;-91
2020/12/18 12:56:57;;;;;;;7.30;4.05;;;10.90;99.90;;;;;;4950599;29;20034;-89
2020/12/18 12:59:23;;;;;;;5.13;3.13;;;10.80;99.90;;;;;;4951072;29;20248;-88
2020/12/18 13:01:50;;;;;;;8.60;5.07;;;10.70;99.90;;;;;;4959069;29;20031;-87
2020/12/18 13:04:19;;;;;;;8.05;4.07;;;10.60;99.90;;;;;;4942571;29;20039;-93
2020/12/18 13:09:19;;;;;;;4.97;3.08;;;10.80;99.90;;;;;;4996647;28;20119;-89
2020/12/18 13:11:45;;;;;;;8.85;3.28;;;10.60;99.90;;;;;;4964152;28;20082;-90
2020/12/18 13:14:12;;;;;;;6.25;3.20;;;10.50;99.90;;;;;;4980549;28;20058;-90
2020/12/18 13:20:16;;;;;;;5.55;3.78;;;10.30;99.90;;;;;;4978522;28;20115;-93
2020/12/18 13:22:43;;;;;;;6.18;3.28;;;10.30;99.90;;;;;;4997127;23;20068;-92
2020/12/18 13:25:13;;;;;;;7.00;3.30;;;10.20;99.90;;;;;;5263691;23;20083;-92
2020/12/18 13:27:43;;;;;;;5.78;3.83;;;10.20;99.90;;;;;;4959246;28;20046;-92
2020/12/18 13:30:27;;;;;;;10.20;3.92;;;10.10;99.90;;;;;;5103749;23;20102;-94
2020/12/18 13:32:54;;;;;;;6.82;3.78;;;10.10;99.90;;;;;;4958148;28;20034;-92
2020/12/18 13:35:28;;;;;;;8.52;3.80;;;10.10;99.90;;;;;;5046794;23;20043;-92
2020/12/18 13:40:40;;;;;;;6.22;3.10;;;10.10;99.90;;;;;;4973712;23;20039;-91
2020/12/18 17:38:31;;;;;;;9.02;4.60;;;7.10;99.90;;;;;;4965225;29;20062;-95
2020/12/18 17:41:07;;;;;;;7.45;5.28;;;7.00;99.90;;;;;;4918550;29;20036;-95
2020/12/18 17:46:28;;;;;;;13.23;5.38;;;6.90;99.90;;;;;;4935768;29;20040;-96
2020/12/18 17:48:58;;;;;;;5.75;3.85;;;6.90;99.90;;;;;;4916383;29;20052;-94